sensor_id;sensor_type;location;lat;lon;timestamp;temperature;humidity
8220;DHT22;4151;51.110;7.020;2022-07-23T00:01:28;16.70;99.90
8220;DHT22;4151;51.110;7.020;2022-07-23T00:03:54;16.60;99.90
8220;DHT22;4151;51.110;7.020;2022-07-23T00:06:21;16.60;99.90
8220;DHT22;4151;51.110;7.020;2022-07-23T00:08:47;16.50;99.90
8220;DHT22;4151;51.110;7.020;2022-07-23T00:11:13;16.40;99.90
8220;DHT22;4151;51.110;7.020;2022-07-23T00:13:39;16.40;99.90
8220;DHT22;4151;51.110;7.020;2022-07-23T00:16:05;16.50;99.90
8220;DHT22;4151;51.110;7.020;2022-07-23T00:18:30;16.40;99.90
8220;DHT22;4151;51.110;7.020;2022-07-23T00:20:56;16.40;99.90
8220;DHT22;4151;51.110;7.020;2022-07-23T00:23:22;16.40;99.90
8220;DHT22;4151;51.110;7.020;2022-07-23T00:25:47;16.30;99.90
8220;DHT22;4151;51.110;7.020;2022-07-23T00:28:13;16.30;99.90
8220;DHT22;4151;51.110;7.020;2022-07-23T00:30:39;16.20;99.90
8220;DHT22;4151;51.110;7.020;2022-07-23T00:33:07;16.20;99.90
8220;DHT22;4151;51.110;7.020;2022-07-23T00:35:37;16.20;99.90
8220;DHT22;4151;51.110;7.020;2022-07-23T00:38:07;16.20;99.90
8220;DHT22;4151;51.110;7.020;2022-07-23T00:40:33;16.30;99.90
8220;DHT22;4151;51.110;7.020;2022-07-23T00:42:58;16.40;99.90
8220;DHT22;4151;51.110;7.020;2022-07-23T00:45:25;16.50;99.90
8220;DHT22;4151;51.110;7.020;2022-07-23T00:47:50;16.40;99.90
8220;DHT22;4151;51.110;7.020;2022-07-23T00:50:16;16.40;99.90
8220;DHT22;4151;51.110;7.020;2022-07-23T00:52:42;16.50;99.90
8220;DHT22;4151;51.110;7.020;2022-07-23T00:55:10;16.50;99.90
8220;DHT22;4151;51.110;7.020;2022-07-23T00:57:36;16.60;99.90
8220;DHT22;4151;51.110;7.020;2022-07-23T01:00:04;16.60;99.90
8220;DHT22;4151;51.110;7.020;2022-07-23T01:02:31;16.60;99.90
8220;DHT22;4151;51.110;7.020;2022-07-23T01:04:56;16.60;99.90
8220;DHT22;4151;51.110;7.020;2022-07-23T01:07:22;16.50;99.90
8220;DHT22;4151;51.110;7.020;2022-07-23T01:09:49;16.50;99.90
8220;DHT22;4151;51.110;7.020;2022-07-23T01:12:15;16.40;99.90
8220;DHT22;4151;51.110;7.020;2022-07-23T01:14:41;16.40;99.90
8220;DHT22;4151;51.110;7.020;2022-07-23T01:17:07;16.30;99.90
8220;DHT22;4151;51.110;7.020;2022-07-23T01:19:32;16.20;99.90
8220;DHT22;4151;51.110;7.020;2022-07-23T01:22:01;16.10;99.90
8220;DHT22;4151;51.110;7.020;2022-07-23T01:24:27;16.10;99.90
8220;DHT22;4151;51.110;7.020;2022-07-23T01:26:53;16.10;99.90
8220;DHT22;4151;51.110;7.020;2022-07-23T01:29:18;16.10;99.90
8220;DHT22;4151;51.110;7.020;2022-07-23T01:31:46;16.20;99.90
8220;DHT22;4151;51.110;7.020;2022-07-23T01:34:12;16.30;99.90
8220;DHT22;4151;51.110;7.020;2022-07-23T01:36:38;16.30;99.90
8220;DHT22;4151;51.110;7.020;2022-07-23T01:39:05;16.40;99.90
8220;DHT22;4151;51.110;7.020;2022-07-23T01:41:31;16.40;99.90
8220;DHT22;4151;51.110;7.020;2022-07-23T01:43:56;16.40;99.90
8220;DHT22;4151;51.110;7.020;2022-07-23T01:46:22;16.50;99.90
8220;DHT22;4151;51.110;7.020;2022-07-23T01:48:48;16.50;99.90
8220;DHT22;4151;51.110;7.020;2022-07-23T01:51:14;16.50;99.90
8220;DHT22;4151;51.110;7.020;2022-07-23T01:53:40;16.40;99.90
8220;DHT22;4151;51.110;7.020;2022-07-23T01:56:05;16.30;99.90
8220;DHT22;4151;51.110;7.020;2022-07-23T01:58:31;16.30;99.90
8220;DHT22;4151;51.110;7.020;2022-07-23T02:00:57;16.20;99.90
8220;DHT22;4151;51.110;7.020;2022-07-23T02:03:23;16.00;99.90
8220;DHT22;4151;51.110;7.020;2022-07-23T02:05:49;16.00;99.90
8220;DHT22;4151;51.110;7.020;2022-07-23T02:08:14;16.00;99.90
8220;DHT22;4151;51.110;7.020;2022-07-23T02:10:40;16.00;99.90
8220;DHT22;4151;51.110;7.020;2022-07-23T02:13:06;16.00;99.90
8220;DHT22;4151;51.110;7.020;2022-07-23T02:15:32;15.90;99.90
8220;DHT22;4151;51.110;7.020;2022-07-23T02:17:58;15.90;99.90
8220;DHT22;4151;51.110;7.020;2022-07-23T02:20:24;15.90;99.90
8220;DHT22;4151;51.110;7.020;2022-07-23T02:22:49;15.90;99.90
8220;DHT22;4151;51.110;7.020;2022-07-23T02:25:15;15.90;99.90
8220;DHT22;4151;51.110;7.020;2022-07-23T02:27:41;15.80;99.90
8220;DHT22;4151;51.110;7.020;2022-07-23T02:30:07;15.80;99.90
8220;DHT22;4151;51.110;7.020;2022-07-23T02:32:32;15.80;99.90
8220;DHT22;4151;51.110;7.020;2022-07-23T02:34:58;15.70;99.90
8220;DHT22;4151;51.110;7.020;2022-07-23T02:37:24;15.70;99.90
8220;DHT22;4151;51.110;7.020;2022-07-23T02:39:49;15.60;99.90
8220;DHT22;4151;51.110;7.020;2022-07-23T02:42:15;15.70;99.90
8220;DHT22;4151;51.110;7.020;2022-07-23T02:44:41;15.60;99.90
8220;DHT22;4151;51.110;7.020;2022-07-23T02:47:07;15.50;99.90
8220;DHT22;4151;51.110;7.020;2022-07-23T02:49:32;15.50;99.90
8220;DHT22;4151;51.110;7.020;2022-07-23T02:51:58;15.50;99.90
8220;DHT22;4151;51.110;7.020;2022-07-23T02:54:24;15.50;99.90
8220;DHT22;4151;51.110;7.020;2022-07-23T02:56:49;15.40;99.90
8220;DHT22;4151;51.110;7.020;2022-07-23T02:59:17;15.40;99.90
8220;DHT22;4151;51.110;7.020;2022-07-23T03:01:43;15.30;99.90
8220;DHT22;4151;51.110;7.020;2022-07-23T03:04:08;15.30;99.90
8220;DHT22;4151;51.110;7.020;2022-07-23T03:06:34;15.30;99.90
8220;DHT22;4151;51.110;7.020;2022-07-23T03:08:59;15.20;99.90
8220;DHT22;4151;51.110;7.020;2022-07-23T03:11:25;15.20;99.90
8220;DHT22;4151;51.110;7.020;2022-07-23T03:13:50;15.20;99.90
8220;DHT22;4151;51.110;7.020;2022-07-23T03:16:16;15.10;99.90
8220;DHT22;4151;51.110;7.020;2022-07-23T03:18:42;15.10;99.90
8220;DHT22;4151;51.110;7.020;2022-07-23T03:21:07;15.00;99.90
8220;DHT22;4151;51.110;7.020;2022-07-23T03:23:33;15.00;99.90
8220;DHT22;4151;51.110;7.020;2022-07-23T03:25:59;15.00;99.90
8220;DHT22;4151;51.110;7.020;2022-07-23T03:28:24;15.00;99.90
8220;DHT22;4151;51.110;7.020;2022-07-23T03:30:50;14.90;99.90
8220;DHT22;4151;51.110;7.020;2022-07-23T03:33:17;14.90;99.90
8220;DHT22;4151;51.110;7.020;2022-07-23T03:35:44;14.90;99.90
8220;DHT22;4151;51.110;7.020;2022-07-23T03:38:09;14.90;99.90
8220;DHT22;4151;51.110;7.020;2022-07-23T03:40:35;14.80;99.90
8220;DHT22;4151;51.110;7.020;2022-07-23T03:43:01;14.90;99.90
8220;DHT22;4151;51.110;7.020;2022-07-23T03:45:26;14.80;99.90
8220;DHT22;4151;51.110;7.020;2022-07-23T03:47:52;14.80;99.90
8220;DHT22;4151;51.110;7.020;2022-07-23T03:50:18;14.80;99.90
8220;DHT22;4151;51.110;7.020;2022-07-23T03:52:44;14.80;99.90
8220;DHT22;4151;51.110;7.020;2022-07-23T03:55:10;14.80;99.90
8220;DHT22;4151;51.110;7.020;2022-07-23T03:57:35;14.70;99.90
8220;DHT22;4151;51.110;7.020;2022-07-23T04:00:03;14.70;99.90
8220;DHT22;4151;51.110;7.020;2022-07-23T04:02:29;14.70;99.90
8220;DHT22;4151;51.110;7.020;2022-07-23T04:04:55;14.60;99.90
8220;DHT22;4151;51.110;7.020;2022-07-23T04:07:20;14.70;99.90
8220;DHT22;4151;51.110;7.020;2022-07-23T04:09:47;14.70;99.90
8220;DHT22;4151;51.110;7.020;2022-07-23T04:12:12;14.70;99.90
8220;DHT22;4151;51.110;7.020;2022-07-23T04:14:38;14.70;99.90
8220;DHT22;4151;51.110;7.020;2022-07-23T04:17:03;14.70;99.90
8220;DHT22;4151;51.110;7.020;2022-07-23T04:19:29;14.70;99.90
8220;DHT22;4151;51.110;7.020;2022-07-23T04:21:56;14.60;99.90
8220;DHT22;4151;51.110;7.020;2022-07-23T04:24:21;14.70;99.90
8220;DHT22;4151;51.110;7.020;2022-07-23T04:26:47;14.70;99.90
8220;DHT22;4151;51.110;7.020;2022-07-23T04:29:12;14.60;99.90
8220;DHT22;4151;51.110;7.020;2022-07-23T04:31:38;14.70;99.90
8220;DHT22;4151;51.110;7.020;2022-07-23T04:34:04;14.70;99.90
8220;DHT22;4151;51.110;7.020;2022-07-23T04:36:29;14.60;99.90
8220;DHT22;4151;51.110;7.020;2022-07-23T04:38:55;14.70;99.90
8220;DHT22;4151;51.110;7.020;2022-07-23T04:41:20;14.70;99.90
8220;DHT22;4151;51.110;7.020;2022-07-23T04:43:46;14.70;99.90
8220;DHT22;4151;51.110;7.020;2022-07-23T04:46:12;14.70;99.90
8220;DHT22;4151;51.110;7.020;2022-07-23T04:48:37;14.70;99.90
8220;DHT22;4151;51.110;7.020;2022-07-23T04:51:03;14.70;99.90
8220;DHT22;4151;51.110;7.020;2022-07-23T04:53:29;14.80;99.90
8220;DHT22;4151;51.110;7.020;2022-07-23T04:55:56;14.80;99.90
8220;DHT22;4151;51.110;7.020;2022-07-23T04:58:22;14.80;99.90
8220;DHT22;4151;51.110;7.020;2022-07-23T05:00:47;14.90;99.90
8220;DHT22;4151;51.110;7.020;2022-07-23T05:03:13;14.90;99.90
8220;DHT22;4151;51.110;7.020;2022-07-23T05:05:39;15.00;99.90
8220;DHT22;4151;51.110;7.020;2022-07-23T05:08:04;15.00;99.90
8220;DHT22;4151;51.110;7.020;2022-07-23T05:10:30;15.10;99.90
8220;DHT22;4151;51.110;7.020;2022-07-23T05:12:56;15.10;99.90
8220;DHT22;4151;51.110;7.020;2022-07-23T05:15:23;15.00;99.90
8220;DHT22;4151;51.110;7.020;2022-07-23T05:17:48;15.10;99.90
8220;DHT22;4151;51.110;7.020;2022-07-23T05:20:14;15.10;99.90
8220;DHT22;4151;51.110;7.020;2022-07-23T05:22:41;15.10;99.90
8220;DHT22;4151;51.110;7.020;2022-07-23T05:25:07;15.20;99.90
8220;DHT22;4151;51.110;7.020;2022-07-23T05:27:33;15.30;99.90
8220;DHT22;4151;51.110;7.020;2022-07-23T05:29:59;15.40;99.90
8220;DHT22;4151;51.110;7.020;2022-07-23T05:32:24;15.40;99.90
8220;DHT22;4151;51.110;7.020;2022-07-23T05:34:50;15.60;99.90
8220;DHT22;4151;51.110;7.020;2022-07-23T05:37:16;15.60;99.90
8220;DHT22;4151;51.110;7.020;2022-07-23T05:39:42;15.60;99.90
8220;DHT22;4151;51.110;7.020;2022-07-23T05:42:07;15.60;99.90
8220;DHT22;4151;51.110;7.020;2022-07-23T05:44:33;15.70;99.90
8220;DHT22;4151;51.110;7.020;2022-07-23T05:46:59;15.70;99.90
8220;DHT22;4151;51.110;7.020;2022-07-23T05:49:25;15.80;99.90
8220;DHT22;4151;51.110;7.020;2022-07-23T05:51:50;15.90;99.90
8220;DHT22;4151;51.110;7.020;2022-07-23T05:54:16;15.90;99.90
8220;DHT22;4151;51.110;7.020;2022-07-23T05:56:42;16.00;99.90
8220;DHT22;4151;51.110;7.020;2022-07-23T05:59:07;16.10;99.90
8220;DHT22;4151;51.110;7.020;2022-07-23T06:01:33;16.20;99.90
8220;DHT22;4151;51.110;7.020;2022-07-23T06:03:59;16.20;99.90
8220;DHT22;4151;51.110;7.020;2022-07-23T06:06:24;16.10;99.90
8220;DHT22;4151;51.110;7.020;2022-07-23T06:08:50;16.20;99.90
8220;DHT22;4151;51.110;7.020;2022-07-23T06:11:15;16.20;99.90
8220;DHT22;4151;51.110;7.020;2022-07-23T06:13:41;16.30;99.90
8220;DHT22;4151;51.110;7.020;2022-07-23T06:16:07;16.40;99.90
8220;DHT22;4151;51.110;7.020;2022-07-23T06:18:32;16.30;99.90
8220;DHT22;4151;51.110;7.020;2022-07-23T06:20:58;16.40;99.90
8220;DHT22;4151;51.110;7.020;2022-07-23T06:23:23;16.50;99.90
8220;DHT22;4151;51.110;7.020;2022-07-23T06:25:49;16.50;99.90
8220;DHT22;4151;51.110;7.020;2022-07-23T06:28:14;16.70;99.90
8220;DHT22;4151;51.110;7.020;2022-07-23T06:30:41;16.80;99.90
8220;DHT22;4151;51.110;7.020;2022-07-23T06:33:06;16.90;99.90
8220;DHT22;4151;51.110;7.020;2022-07-23T06:35:32;17.00;99.90
8220;DHT22;4151;51.110;7.020;2022-07-23T06:37:59;17.10;99.90
8220;DHT22;4151;51.110;7.020;2022-07-23T06:40:24;17.30;99.90
8220;DHT22;4151;51.110;7.020;2022-07-23T06:42:50;17.50;99.90
8220;DHT22;4151;51.110;7.020;2022-07-23T06:45:15;17.50;99.90
8220;DHT22;4151;51.110;7.020;2022-07-23T06:47:41;17.60;99.90
8220;DHT22;4151;51.110;7.020;2022-07-23T06:50:07;17.70;99.90
8220;DHT22;4151;51.110;7.020;2022-07-23T06:52:33;17.80;99.90
8220;DHT22;4151;51.110;7.020;2022-07-23T06:54:58;17.90;99.90
8220;DHT22;4151;51.110;7.020;2022-07-23T06:57:24;17.90;99.90
8220;DHT22;4151;51.110;7.020;2022-07-23T06:59:51;18.00;99.90
8220;DHT22;4151;51.110;7.020;2022-07-23T07:02:17;18.10;99.90
8220;DHT22;4151;51.110;7.020;2022-07-23T07:04:43;18.20;99.90
8220;DHT22;4151;51.110;7.020;2022-07-23T07:07:08;18.20;99.90
8220;DHT22;4151;51.110;7.020;2022-07-23T07:09:34;18.20;99.90
8220;DHT22;4151;51.110;7.020;2022-07-23T07:12:00;18.30;99.90
8220;DHT22;4151;51.110;7.020;2022-07-23T07:14:25;18.30;99.90
8220;DHT22;4151;51.110;7.020;2022-07-23T07:16:51;18.30;99.90
8220;DHT22;4151;51.110;7.020;2022-07-23T07:19:16;18.40;99.90
8220;DHT22;4151;51.110;7.020;2022-07-23T07:21:42;18.40;99.90
8220;DHT22;4151;51.110;7.020;2022-07-23T07:24:08;18.60;99.90
8220;DHT22;4151;51.110;7.020;2022-07-23T07:26:34;18.60;99.90
8220;DHT22;4151;51.110;7.020;2022-07-23T07:28:59;18.70;99.90
8220;DHT22;4151;51.110;7.020;2022-07-23T07:31:25;18.70;99.90
8220;DHT22;4151;51.110;7.020;2022-07-23T07:33:51;18.90;99.90
8220;DHT22;4151;51.110;7.020;2022-07-23T07:48:44;19.70;99.90
8220;DHT22;4151;51.110;7.020;2022-07-23T07:51:10;19.90;99.90
8220;DHT22;4151;51.110;7.020;2022-07-23T07:53:35;20.00;99.90
8220;DHT22;4151;51.110;7.020;2022-07-23T07:56:01;20.30;99.90
8220;DHT22;4151;51.110;7.020;2022-07-23T07:58:26;20.50;99.90
8220;DHT22;4151;51.110;7.020;2022-07-23T08:00:52;20.60;99.90
8220;DHT22;4151;51.110;7.020;2022-07-23T08:03:17;20.70;99.90
8220;DHT22;4151;51.110;7.020;2022-07-23T08:05:43;20.90;99.90
8220;DHT22;4151;51.110;7.020;2022-07-23T08:08:09;20.90;99.90
8220;DHT22;4151;51.110;7.020;2022-07-23T08:10:40;21.00;99.90
8220;DHT22;4151;51.110;7.020;2022-07-23T08:13:05;20.90;99.90
8220;DHT22;4151;51.110;7.020;2022-07-23T08:15:31;20.90;99.90
8220;DHT22;4151;51.110;7.020;2022-07-23T08:17:57;21.10;99.90
8220;DHT22;4151;51.110;7.020;2022-07-23T08:20:24;21.30;99.90
8220;DHT22;4151;51.110;7.020;2022-07-23T08:22:58;21.30;99.90
8220;DHT22;4151;51.110;7.020;2022-07-23T08:27:51;20.80;99.90
8220;DHT22;4151;51.110;7.020;2022-07-23T08:30:17;20.50;99.90
8220;DHT22;4151;51.110;7.020;2022-07-23T08:32:56;20.50;99.90
8220;DHT22;4151;51.110;7.020;2022-07-23T08:35:29;20.50;99.90
8220;DHT22;4151;51.110;7.020;2022-07-23T08:37:56;20.60;99.90
8220;DHT22;4151;51.110;7.020;2022-07-23T08:40:22;20.70;99.90
8220;DHT22;4151;51.110;7.020;2022-07-23T08:42:49;20.90;99.90
8220;DHT22;4151;51.110;7.020;2022-07-23T08:45:20;21.10;99.90
8220;DHT22;4151;51.110;7.020;2022-07-23T08:47:54;21.20;99.90
8220;DHT22;4151;51.110;7.020;2022-07-23T08:50:21;21.40;99.90
8220;DHT22;4151;51.110;7.020;2022-07-23T08:52:49;21.60;99.90
8220;DHT22;4151;51.110;7.020;2022-07-23T08:55:17;21.50;99.90
8220;DHT22;4151;51.110;7.020;2022-07-23T08:57:43;21.50;99.90
8220;DHT22;4151;51.110;7.020;2022-07-23T09:00:10;21.80;99.90
8220;DHT22;4151;51.110;7.020;2022-07-23T09:02:41;22.00;99.90
8220;DHT22;4151;51.110;7.020;2022-07-23T09:05:08;22.00;99.90
8220;DHT22;4151;51.110;7.020;2022-07-23T09:07:36;22.20;99.90
8220;DHT22;4151;51.110;7.020;2022-07-23T09:10:10;22.30;99.90
8220;DHT22;4151;51.110;7.020;2022-07-23T09:12:37;22.50;99.90
8220;DHT22;4151;51.110;7.020;2022-07-23T09:15:05;22.90;99.90
8220;DHT22;4151;51.110;7.020;2022-07-23T09:17:37;23.20;99.90
8220;DHT22;4151;51.110;7.020;2022-07-23T09:20:11;23.50;99.90
8220;DHT22;4151;51.110;7.020;2022-07-23T09:22:38;23.80;99.90
8220;DHT22;4151;51.110;7.020;2022-07-23T09:25:18;24.20;99.90
8220;DHT22;4151;51.110;7.020;2022-07-23T09:27:58;24.60;99.90
8220;DHT22;4151;51.110;7.020;2022-07-23T09:30:30;24.60;99.90
8220;DHT22;4151;51.110;7.020;2022-07-23T09:33:09;24.90;99.90
8220;DHT22;4151;51.110;7.020;2022-07-23T09:35:55;25.00;99.90
8220;DHT22;4151;51.110;7.020;2022-07-23T09:38:24;25.10;99.90
8220;DHT22;4151;51.110;7.020;2022-07-23T09:41:09;24.90;99.90
8220;DHT22;4151;51.110;7.020;2022-07-23T09:43:35;24.20;99.90
8220;DHT22;4151;51.110;7.020;2022-07-23T09:46:26;23.70;99.90
8220;DHT22;4151;51.110;7.020;2022-07-23T09:48:54;23.80;99.90
8220;DHT22;4151;51.110;7.020;2022-07-23T09:51:21;24.00;99.90
8220;DHT22;4151;51.110;7.020;2022-07-23T09:53:53;24.30;99.90
8220;DHT22;4151;51.110;7.020;2022-07-23T09:58:49;23.30;99.90
8220;DHT22;4151;51.110;7.020;2022-07-23T10:01:15;25.20;99.90
8220;DHT22;4151;51.110;7.020;2022-07-23T10:03:42;25.60;99.90
8220;DHT22;4151;51.110;7.020;2022-07-23T10:06:09;26.10;99.90
8220;DHT22;4151;51.110;7.020;2022-07-23T10:08:35;26.00;99.90
8220;DHT22;4151;51.110;7.020;2022-07-23T10:11:04;26.20;99.90
8220;DHT22;4151;51.110;7.020;2022-07-23T10:13:30;26.40;99.90
8220;DHT22;4151;51.110;7.020;2022-07-23T10:15:59;26.70;99.90
8220;DHT22;4151;51.110;7.020;2022-07-23T10:18:25;27.20;99.90
8220;DHT22;4151;51.110;7.020;2022-07-23T10:20:51;27.60;99.90
8220;DHT22;4151;51.110;7.020;2022-07-23T10:23:34;27.70;99.90
8220;DHT22;4151;51.110;7.020;2022-07-23T10:26:32;27.10;99.90
8220;DHT22;4151;51.110;7.020;2022-07-23T10:29:10;26.70;99.90
8220;DHT22;4151;51.110;7.020;2022-07-23T10:31:50;26.60;99.90
8220;DHT22;4151;51.110;7.020;2022-07-23T10:37:21;26.60;99.90
8220;DHT22;4151;51.110;7.020;2022-07-23T10:42:35;26.50;99.90
8220;DHT22;4151;51.110;7.020;2022-07-23T10:45:22;26.80;99.90
8220;DHT22;4151;51.110;7.020;2022-07-23T10:47:49;27.00;99.90
8220;DHT22;4151;51.110;7.020;2022-07-23T10:57:58;27.00;99.90
8220;DHT22;4151;51.110;7.020;2022-07-23T11:00:25;26.70;99.90
8220;DHT22;4151;51.110;7.020;2022-07-23T11:02:56;27.20;99.90
8220;DHT22;4151;51.110;7.020;2022-07-23T11:05:43;27.60;99.90
8220;DHT22;4151;51.110;7.020;2022-07-23T11:10:55;29.00;99.90
8220;DHT22;4151;51.110;7.020;2022-07-23T11:24:07;29.40;99.90
8220;DHT22;4151;51.110;7.020;2022-07-23T11:27:11;29.80;99.90
8220;DHT22;4151;51.110;7.020;2022-07-23T11:29:40;30.60;99.90
8220;DHT22;4151;51.110;7.020;2022-07-23T11:34:46;30.80;99.90
8220;DHT22;4151;51.110;7.020;2022-07-23T11:37:31;31.50;99.90
8220;DHT22;4151;51.110;7.020;2022-07-23T11:39:58;31.00;99.90
8220;DHT22;4151;51.110;7.020;2022-07-23T11:42:24;31.20;99.90
8220;DHT22;4151;51.110;7.020;2022-07-23T11:44:51;31.50;99.90
8220;DHT22;4151;51.110;7.020;2022-07-23T11:47:23;31.50;99.90
8220;DHT22;4151;51.110;7.020;2022-07-23T11:49:57;31.60;99.90
8220;DHT22;4151;51.110;7.020;2022-07-23T11:52:23;32.60;97.60
8220;DHT22;4151;51.110;7.020;2022-07-23T11:54:59;33.00;97.90
8220;DHT22;4151;51.110;7.020;2022-07-23T11:57:28;33.10;95.40
8220;DHT22;4151;51.110;7.020;2022-07-23T12:00:10;32.80;96.10
8220;DHT22;4151;51.110;7.020;2022-07-23T12:02:50;32.80;94.20
8220;DHT22;4151;51.110;7.020;2022-07-23T12:05:19;33.30;93.80
8220;DHT22;4151;51.110;7.020;2022-07-23T12:07:46;33.50;93.00
8220;DHT22;4151;51.110;7.020;2022-07-23T12:12:52;33.80;94.20
8220;DHT22;4151;51.110;7.020;2022-07-23T12:15:32;34.00;93.30
8220;DHT22;4151;51.110;7.020;2022-07-23T12:18:00;34.00;93.60
8220;DHT22;4151;51.110;7.020;2022-07-23T12:20:31;33.40;92.30
8220;DHT22;4151;51.110;7.020;2022-07-23T12:22:58;33.50;92.00
8220;DHT22;4151;51.110;7.020;2022-07-23T12:25:27;33.20;91.40
8220;DHT22;4151;51.110;7.020;2022-07-23T12:28:33;33.50;92.30
8220;DHT22;4151;51.110;7.020;2022-07-23T12:30:53;33.90;90.90
8220;DHT22;4151;51.110;7.020;2022-07-23T12:33:25;33.40;89.70
8220;DHT22;4151;51.110;7.020;2022-07-23T12:35:53;32.70;90.60
8220;DHT22;4151;51.110;7.020;2022-07-23T12:38:20;32.90;91.90
8220;DHT22;4151;51.110;7.020;2022-07-23T12:43:31;34.20;91.30
8220;DHT22;4151;51.110;7.020;2022-07-23T12:46:10;34.40;90.40
8220;DHT22;4151;51.110;7.020;2022-07-23T12:48:54;34.00;88.90
8220;DHT22;4151;51.110;7.020;2022-07-23T12:51:25;34.10;90.60
8220;DHT22;4151;51.110;7.020;2022-07-23T12:53:58;34.60;87.40
8220;DHT22;4151;51.110;7.020;2022-07-23T12:56:30;35.40;86.50
8220;DHT22;4151;51.110;7.020;2022-07-23T12:59:08;36.50;85.30
8220;DHT22;4151;51.110;7.020;2022-07-23T13:01:44;37.10;79.20
8220;DHT22;4151;51.110;7.020;2022-07-23T13:04:17;37.00;78.90
8220;DHT22;4151;51.110;7.020;2022-07-23T13:06:54;36.40;81.80
8220;DHT22;4151;51.110;7.020;2022-07-23T13:09:22;36.40;80.60
8220;DHT22;4151;51.110;7.020;2022-07-23T13:11:50;36.60;80.50
8220;DHT22;4151;51.110;7.020;2022-07-23T13:14:17;36.10;80.70
8220;DHT22;4151;51.110;7.020;2022-07-23T13:16:43;36.20;81.70
8220;DHT22;4151;51.110;7.020;2022-07-23T13:19:10;35.30;78.00
8220;DHT22;4151;51.110;7.020;2022-07-23T13:21:36;33.80;81.90
8220;DHT22;4151;51.110;7.020;2022-07-23T13:24:01;34.40;83.30
8220;DHT22;4151;51.110;7.020;2022-07-23T13:26:27;35.00;81.40
8220;DHT22;4151;51.110;7.020;2022-07-23T13:28:54;35.30;82.00
8220;DHT22;4151;51.110;7.020;2022-07-23T13:31:20;36.10;81.10
8220;DHT22;4151;51.110;7.020;2022-07-23T13:33:45;36.50;79.80
8220;DHT22;4151;51.110;7.020;2022-07-23T13:36:11;36.80;78.80
8220;DHT22;4151;51.110;7.020;2022-07-23T13:38:37;37.30;78.00
8220;DHT22;4151;51.110;7.020;2022-07-23T13:41:02;37.10;76.20
8220;DHT22;4151;51.110;7.020;2022-07-23T13:43:29;36.70;73.00
8220;DHT22;4151;51.110;7.020;2022-07-23T13:45:55;35.70;75.50
8220;DHT22;4151;51.110;7.020;2022-07-23T13:48:21;36.10;77.70
8220;DHT22;4151;51.110;7.020;2022-07-23T13:50:48;37.20;76.60
8220;DHT22;4151;51.110;7.020;2022-07-23T13:53:17;38.60;73.30
8220;DHT22;4151;51.110;7.020;2022-07-23T13:55:44;38.80;69.50
8220;DHT22;4151;51.110;7.020;2022-07-23T13:58:10;38.20;70.00
8220;DHT22;4151;51.110;7.020;2022-07-23T14:00:40;38.30;70.30
8220;DHT22;4151;51.110;7.020;2022-07-23T14:03:06;38.60;69.50
8220;DHT22;4151;51.110;7.020;2022-07-23T14:05:32;39.40;71.10
8220;DHT22;4151;51.110;7.020;2022-07-23T14:07:58;39.90;69.30
8220;DHT22;4151;51.110;7.020;2022-07-23T14:10:24;40.20;67.60
8220;DHT22;4151;51.110;7.020;2022-07-23T14:12:51;39.30;68.60
8220;DHT22;4151;51.110;7.020;2022-07-23T14:15:18;40.10;69.50
8220;DHT22;4151;51.110;7.020;2022-07-23T14:17:45;39.10;67.70
8220;DHT22;4151;51.110;7.020;2022-07-23T14:20:12;39.20;67.60
8220;DHT22;4151;51.110;7.020;2022-07-23T14:22:39;38.90;65.90
8220;DHT22;4151;51.110;7.020;2022-07-23T14:25:06;38.70;66.00
8220;DHT22;4151;51.110;7.020;2022-07-23T14:27:33;39.50;66.30
8220;DHT22;4151;51.110;7.020;2022-07-23T14:29:59;37.90;65.70
8220;DHT22;4151;51.110;7.020;2022-07-23T14:32:25;37.10;67.40
8220;DHT22;4151;51.110;7.020;2022-07-23T14:34:51;37.00;68.60
8220;DHT22;4151;51.110;7.020;2022-07-23T14:37:17;38.60;65.70
8220;DHT22;4151;51.110;7.020;2022-07-23T14:39:43;38.80;65.70
8220;DHT22;4151;51.110;7.020;2022-07-23T14:42:09;38.90;67.20
8220;DHT22;4151;51.110;7.020;2022-07-23T14:44:36;39.20;65.70
8220;DHT22;4151;51.110;7.020;2022-07-23T14:47:03;36.50;68.30
8220;DHT22;4151;51.110;7.020;2022-07-23T14:49:32;35.00;70.90
8220;DHT22;4151;51.110;7.020;2022-07-23T14:51:59;35.70;70.70
8220;DHT22;4151;51.110;7.020;2022-07-23T14:54:25;37.70;69.60
8220;DHT22;4151;51.110;7.020;2022-07-23T14:56:53;38.50;68.90
8220;DHT22;4151;51.110;7.020;2022-07-23T14:59:18;38.70;65.60
8220;DHT22;4151;51.110;7.020;2022-07-23T15:01:44;39.30;65.70
8220;DHT22;4151;51.110;7.020;2022-07-23T15:04:10;39.50;65.60
8220;DHT22;4151;51.110;7.020;2022-07-23T15:06:35;39.30;66.30
8220;DHT22;4151;51.110;7.020;2022-07-23T15:09:02;39.90;64.10
8220;DHT22;4151;51.110;7.020;2022-07-23T15:11:28;40.10;64.70
8220;DHT22;4151;51.110;7.020;2022-07-23T15:13:56;40.90;62.90
8220;DHT22;4151;51.110;7.020;2022-07-23T15:16:22;41.00;61.90
8220;DHT22;4151;51.110;7.020;2022-07-23T15:18:47;41.20;62.50
8220;DHT22;4151;51.110;7.020;2022-07-23T15:21:13;40.80;63.40
8220;DHT22;4151;51.110;7.020;2022-07-23T15:23:39;40.70;62.70
8220;DHT22;4151;51.110;7.020;2022-07-23T15:26:06;40.70;63.10
8220;DHT22;4151;51.110;7.020;2022-07-23T15:28:31;41.00;62.30
8220;DHT22;4151;51.110;7.020;2022-07-23T15:30:57;42.10;60.50
8220;DHT22;4151;51.110;7.020;2022-07-23T15:33:23;42.10;59.40
8220;DHT22;4151;51.110;7.020;2022-07-23T15:35:48;41.70;61.40
8220;DHT22;4151;51.110;7.020;2022-07-23T15:38:14;42.30;61.80
8220;DHT22;4151;51.110;7.020;2022-07-23T15:40:40;41.80;60.70
8220;DHT22;4151;51.110;7.020;2022-07-23T15:43:06;41.60;60.10
8220;DHT22;4151;51.110;7.020;2022-07-23T15:45:31;41.40;60.00
8220;DHT22;4151;51.110;7.020;2022-07-23T15:47:57;41.00;60.50
8220;DHT22;4151;51.110;7.020;2022-07-23T15:50:23;41.60;60.50
8220;DHT22;4151;51.110;7.020;2022-07-23T15:52:48;42.10;60.00
8220;DHT22;4151;51.110;7.020;2022-07-23T15:55:14;41.40;60.20
8220;DHT22;4151;51.110;7.020;2022-07-23T15:57:40;41.60;59.90
8220;DHT22;4151;51.110;7.020;2022-07-23T16:00:06;41.20;58.90
8220;DHT22;4151;51.110;7.020;2022-07-23T16:02:33;41.60;60.30
8220;DHT22;4151;51.110;7.020;2022-07-23T16:04:59;41.60;59.80
8220;DHT22;4151;51.110;7.020;2022-07-23T16:07:25;40.40;59.60
8220;DHT22;4151;51.110;7.020;2022-07-23T16:09:50;40.70;60.30
8220;DHT22;4151;51.110;7.020;2022-07-23T16:12:16;39.90;59.00
8220;DHT22;4151;51.110;7.020;2022-07-23T16:14:41;39.60;60.10
8220;DHT22;4151;51.110;7.020;2022-07-23T16:17:07;39.00;61.60
8220;DHT22;4151;51.110;7.020;2022-07-23T16:19:33;37.40;61.90
8220;DHT22;4151;51.110;7.020;2022-07-23T16:21:59;36.50;63.50
8220;DHT22;4151;51.110;7.020;2022-07-23T16:24:24;37.30;64.70
8220;DHT22;4151;51.110;7.020;2022-07-23T16:26:50;37.00;64.40
8220;DHT22;4151;51.110;7.020;2022-07-23T16:29:16;35.60;66.70
8220;DHT22;4151;51.110;7.020;2022-07-23T16:31:41;35.20;68.00
8220;DHT22;4151;51.110;7.020;2022-07-23T16:34:07;35.90;67.70
8220;DHT22;4151;51.110;7.020;2022-07-23T16:36:32;37.10;66.40
8220;DHT22;4151;51.110;7.020;2022-07-23T16:39:02;38.40;65.30
8220;DHT22;4151;51.110;7.020;2022-07-23T16:41:28;39.20;63.30
8220;DHT22;4151;51.110;7.020;2022-07-23T16:43:53;39.20;61.70
8220;DHT22;4151;51.110;7.020;2022-07-23T16:46:19;39.10;61.70
8220;DHT22;4151;51.110;7.020;2022-07-23T16:48:45;38.50;62.50
8220;DHT22;4151;51.110;7.020;2022-07-23T16:51:11;37.70;63.90
8220;DHT22;4151;51.110;7.020;2022-07-23T16:53:37;37.10;65.60
8220;DHT22;4151;51.110;7.020;2022-07-23T16:56:04;36.20;66.90